Aérodrome :
LOGIN :

S'inscrire | Disclaimer

   EN    FR    IT 

 










Légende :    VFR   VFR Marginal   IFR   IFR Intensif   IFR Très Intensif
Visi : 
Plafond : 
>= 8 km
>= 3000ft
5 à 8 km
1000 à 3000 ft
1500m à 5 km
500 à 1000 ft
800 à 1500m
200 à 500 ft
< 800m
< 200 ft
Symboles :   Orages  Brouillard  Fortes neiges  Fortes précipitations  Vent > 20 kt
SIGMETs :   Divers  Orages  Givrage  Turbulence  Onde Orograph.  Cendres Volcan.






- Altitude de l'aérodrome : 876 ft
- Code IATA : MBX


LJMB - Maribor

DERNIER METAR :
  • 011330Z 02002KT 9999 VCTS FEW005 SCT030CB BKN047 19/17 Q1006 RETSRA

METARs EXPIRÉS :
  • 011300Z 35016KT 6000 +TSRA FEW005 BKN030CB BKN047 18/18 Q1006
  • 011230Z 33010KT 290V010 1000 +TSRA BR FEW004 BKN030CB BKN057 20/19 Q1006
  • 011200Z 02004KT 290V060 9999 SCT004 SCT030TCU BKN088 22/20 Q1006 RETSRA
  • 011130Z 34004KT 280V030 1000 R32/P2000N +TSRA BR FEW010 FEW030 SCT035CB BKN100 20/19 Q1006
  • 011100Z VRB02KT 9999 -SHRA FEW023TCU BKN043 21/19 Q1005 RETSRA

TAF TAF LJMB
Valide du 01 à 12h jusqu'au 02 à 12h UTC


011100Z 0112/0212 VRB02KT 9999 FEW045
BECMG 0112/0114 19010KT
TEMPO 0112/0124 32020KT 5000 TSRA SCT045CB BKN050
BECMG 0119/0121 36010KT
PROB30
TEMPO 0200/0212 SHRA SCT030TCU BKN050



MET'MAP, la Météo Aéronautique d'un coup d'oeil ! - Copyright ORBIFLY Décembre 2007 - Disclaimer

ORBIFLY MET'MAP TEAM :

Programmation & Développement : Alexandra Zaïnal
Sur une idée originale de : Baudouin d'Aumeries
Assistance à la programmation : Marc-Olivier Méhu
Soutien technique & logistique : Manuel Goepfert

Contact : metmap@orbifly.com




SOURCES & CREDITS :

   NOAA